Bradley, South Carolina
Current Conditions -  °F | °C
As of 1:56 PM on Friday 24 Oct 2014 (Local Time) from KGRD Reporting Station
Clear Clear  
Wind Chill: 67°   Ceiling: Unl
Heat Index: 67°   Visibility: 10mi
Dew Point: 43°   Wind: 3mph
Humidity: 42%   Direction: 150°SSE
Pressure: 30.06"   Gusts: NA
Location:  34.05°N, 82.24°W
Report Text: KGRD 241756Z AUTO 15003KT 10SM CLR 19/06 A3006 RMK AO2 SLP175 T01940061 10194 20050 58016
Loading
Personal Weather Stations






























Interactive Weather Map
Tropical Storm Tracking
New forecast layout! Learn more

10-Day Weather Forecast

Advertisements
Track Severe Weather on mobile